createdAt,value
2019-04-01T00:01:53.039Z,25.03
2019-04-01T00:04:23.350Z,39.93
2019-04-01T00:06:53.734Z,22.70
2019-04-01T00:09:24.068Z,23.77
2019-04-01T00:11:54.359Z,29.07
2019-04-01T00:14:24.724Z,28.17
2019-04-01T00:16:55.014Z,23.03
2019-04-01T00:19:25.436Z,44.17
2019-04-01T00:21:55.728Z,21.30
2019-04-01T00:24:26.067Z,23.83
2019-04-01T00:26:56.379Z,17.87
2019-04-01T00:29:26.063Z,35.87
2019-04-01T00:31:56.275Z,27.10
2019-04-01T00:34:25.947Z,24.67
2019-04-01T00:36:56.163Z,25.87
2019-04-01T00:39:26.499Z,30.73
2019-04-01T00:42:24.723Z,26.33
2019-04-01T00:44:55.041Z,30.63
2019-04-01T00:47:25.367Z,29.30
2019-04-01T00:49:55.728Z,25.88
2019-04-01T00:52:25.376Z,24.93
2019-04-01T00:54:55.650Z,21.23
2019-04-01T00:57:25.955Z,31.90
2019-04-01T00:59:56.279Z,36.30
2019-04-01T01:02:26.604Z,22.23
2019-04-01T01:04:56.979Z,19.43
2019-04-01T01:07:27.267Z,31.68
2019-04-01T01:09:57.578Z,20.50
2019-04-01T01:12:27.884Z,23.02
2019-04-01T01:14:58.193Z,30.87
2019-04-01T01:17:28.504Z,29.70
2019-04-01T01:19:58.172Z,26.00
2019-04-01T01:22:28.366Z,27.93
2019-04-01T01:24:58.700Z,25.60
2019-04-01T01:27:28.356Z,25.77
2019-04-01T01:29:58.570Z,26.93
2019-04-01T01:32:28.211Z,33.63
2019-04-01T01:34:58.407Z,27.40
2019-04-01T01:37:28.379Z,25.63
2019-04-01T01:39:57.956Z,27.27
2019-04-01T01:42:28.183Z,22.77
2019-04-01T01:44:58.591Z,26.93
2019-04-01T01:47:28.259Z,25.10
2019-04-01T01:49:58.467Z,31.33
2019-04-01T01:52:28.806Z,27.67
2019-04-01T01:54:59.099Z,27.70
2019-04-01T01:57:28.754Z,34.53
2019-04-01T01:59:58.958Z,34.93
2019-04-01T02:02:28.711Z,28.30
2019-04-01T02:04:58.909Z,24.50
2019-04-01T02:07:28.553Z,25.25
2019-04-01T02:09:58.106Z,33.50
2019-04-01T02:12:28.478Z,32.60
2019-04-01T02:14:58.798Z,32.37
2019-04-01T02:17:28.498Z,24.77
2019-04-01T02:19:58.899Z,31.50
2019-04-01T02:22:29.221Z,32.35
2019-04-01T02:24:59.523Z,20.23
2019-04-01T02:27:30.049Z,27.48
2019-04-01T02:30:00.575Z,27.33
2019-04-01T02:32:30.386Z,23.50
2019-04-01T02:35:00.576Z,23.87
2019-04-01T02:37:30.275Z,30.90
2019-04-01T02:40:00.768Z,23.70
2019-04-01T02:42:31.199Z,32.33
2019-04-01T02:45:01.523Z,34.47
2019-04-01T02:47:31.873Z,29.23
2019-04-01T02:50:02.163Z,22.17
2019-04-01T02:52:32.495Z,21.68
2019-04-01T02:55:06.683Z,20.70
2019-04-01T02:57:34.741Z,24.40
2019-04-01T03:00:05.348Z,35.43
2019-04-01T03:02:35.676Z,35.28
2019-04-01T03:05:06.792Z,34.80
2019-04-01T03:07:37.109Z,24.47
2019-04-01T03:10:07.650Z,29.20
2019-04-01T03:12:37.286Z,27.37
2019-04-01T03:15:06.872Z,28.93
2019-04-01T03:17:37.090Z,28.77
2019-04-01T03:20:07.139Z,26.27
2019-04-01T03:22:37.364Z,28.80
2019-04-01T03:25:07.676Z,33.07
2019-04-01T03:27:37.998Z,25.90
2019-04-01T03:30:07.664Z,35.37
2019-04-01T03:32:44.231Z,30.40
2019-04-01T03:35:09.847Z,35.90
2019-04-01T03:37:39.556Z,23.90
2019-04-01T03:40:09.710Z,27.10
2019-04-01T03:42:40.024Z,32.30
2019-04-01T03:45:10.968Z,28.67
2019-04-01T03:47:40.705Z,23.27
2019-04-01T03:50:10.930Z,28.00
2019-04-01T03:52:40.641Z,30.73
2019-04-01T03:55:10.968Z,28.00
2019-04-01T03:57:40.612Z,29.47
2019-04-01T04:00:11.734Z,28.67
2019-04-01T04:02:41.392Z,21.53
2019-04-01T04:05:11.610Z,25.27
2019-04-01T04:07:41.396Z,29.03
2019-04-01T04:10:11.073Z,31.20
2019-04-01T04:12:41.267Z,23.87
2019-04-01T04:15:10.937Z,26.70
2019-04-01T04:17:41.201Z,25.70
2019-04-01T04:20:10.836Z,30.50
2019-04-01T04:22:41.070Z,16.90
2019-04-01T04:25:10.723Z,27.17
2019-04-01T04:27:40.984Z,30.53
2019-04-01T04:30:10.927Z,26.83
2019-04-01T04:32:41.173Z,25.90
2019-04-01T04:35:10.827Z,30.43
2019-04-01T04:37:40.422Z,28.03
2019-04-01T04:40:10.670Z,29.20
2019-04-01T04:42:40.975Z,26.60
2019-04-01T04:45:10.631Z,21.13
2019-04-01T04:47:40.863Z,26.50
2019-04-01T04:50:11.379Z,30.40
2019-04-01T04:52:41.667Z,27.67
2019-04-01T04:55:11.325Z,24.10
2019-04-01T04:57:41.536Z,23.67
2019-04-01T05:00:11.323Z,25.50
2019-04-01T05:02:41.519Z,26.87
2019-04-01T05:05:11.198Z,28.17
2019-04-01T05:07:41.512Z,25.07
2019-04-01T05:10:11.316Z,22.27
2019-04-01T05:12:42.212Z,24.17
2019-04-01T05:15:11.995Z,30.20
2019-04-01T05:17:42.231Z,26.97
2019-04-01T05:20:12.547Z,30.97
2019-04-01T05:22:43.479Z,24.53
2019-04-01T05:25:13.820Z,27.60
2019-04-01T05:27:45.697Z,26.80
2019-04-01T05:30:16.181Z,23.33
2019-04-01T05:32:47.602Z,28.60
2019-04-01T05:35:18.939Z,26.77
2019-04-01T05:37:48.603Z,29.33
2019-04-01T05:40:18.818Z,24.10
2019-04-01T05:42:49.102Z,42.70
2019-04-01T05:45:20.352Z,33.93
2019-04-01T05:47:52.886Z,36.53
2019-04-01T05:50:23.158Z,30.17
2019-04-01T05:52:52.827Z,30.17
2019-04-01T05:55:22.408Z,25.50
2019-04-01T05:57:52.089Z,40.20
2019-04-01T06:00:28.208Z,32.10
2019-04-01T06:02:58.683Z,31.77
2019-04-01T06:05:29.158Z,26.07
2019-04-01T06:07:59.559Z,30.10
2019-04-01T06:10:29.871Z,26.30
2019-04-01T06:13:00.479Z,34.33
2019-04-01T06:15:30.799Z,31.60
2019-04-01T06:18:00.494Z,28.23
2019-04-01T06:20:30.726Z,28.73
2019-04-01T06:23:00.381Z,29.93
2019-04-01T06:25:30.632Z,35.38
2019-04-01T06:28:00.296Z,28.03
2019-04-01T06:30:30.729Z,29.53
2019-04-01T06:33:00.964Z,36.13
2019-04-01T06:35:31.003Z,22.02
2019-04-01T06:38:00.627Z,36.50
2019-04-01T06:40:30.475Z,34.03
2019-04-01T06:43:00.718Z,29.07
2019-04-01T06:45:31.278Z,24.50
2019-04-01T06:48:00.926Z,29.60
2019-04-01T06:50:31.139Z,18.37
2019-04-01T06:53:01.383Z,22.77
2019-04-01T06:55:30.959Z,24.97
2019-04-01T06:58:00.534Z,19.83
2019-04-01T07:00:30.114Z,16.47
2019-04-01T07:02:59.675Z,17.17
2019-04-01T07:05:29.919Z,18.70
2019-04-01T07:07:59.576Z,19.10
2019-04-01T07:10:29.918Z,17.33
2019-04-01T07:12:59.608Z,19.87
2019-04-01T07:15:29.774Z,21.67
2019-04-01T07:17:59.530Z,17.93
2019-04-01T07:20:29.130Z,23.90
2019-04-01T07:22:59.468Z,27.83
2019-04-01T07:25:29.156Z,26.02
2019-04-01T07:27:59.207Z,18.73
2019-04-01T07:30:29.427Z,20.37
2019-04-01T07:32:59.906Z,23.50
2019-04-01T07:35:29.566Z,16.50
2019-04-01T07:37:59.714Z,22.43
2019-04-01T07:40:29.405Z,22.87
2019-04-01T07:43:00.069Z,14.67
2019-04-01T07:45:29.815Z,18.53
2019-04-01T07:47:59.417Z,20.43
2019-04-01T07:50:29.634Z,15.70
2019-04-01T07:52:59.983Z,21.50
2019-04-01T07:55:29.787Z,22.63
2019-04-01T07:57:59.982Z,21.17
2019-04-01T08:00:30.228Z,15.20
2019-04-01T08:03:00.547Z,19.40
2019-04-01T08:05:31.033Z,14.97
2019-04-01T08:08:01.286Z,14.97
2019-04-01T08:10:31.548Z,16.73
2019-04-01T08:13:01.222Z,14.13
2019-04-01T08:15:31.431Z,18.93
2019-04-01T08:18:01.117Z,14.57
2019-04-01T08:20:31.431Z,15.53
2019-04-01T08:23:01.865Z,21.27
2019-04-01T08:25:32.176Z,14.77
2019-04-01T08:28:02.500Z,14.17
2019-04-01T08:30:32.836Z,18.80
2019-04-01T08:33:02.519Z,15.90
2019-04-01T08:35:32.762Z,15.80
2019-04-01T08:38:03.105Z,12.60
2019-04-01T08:40:33.423Z,15.13
2019-04-01T08:43:03.839Z,12.63
2019-04-01T08:45:33.495Z,21.30
2019-04-01T08:48:03.711Z,14.00
2019-04-01T08:50:33.413Z,16.07
2019-04-01T08:53:03.619Z,13.20
2019-04-01T08:55:34.162Z,16.25
2019-04-01T08:58:04.605Z,11.77
2019-04-01T09:00:34.955Z,12.40
2019-04-01T09:03:05.384Z,14.20
2019-04-01T09:05:35.695Z,14.60
2019-04-01T09:08:06.103Z,16.53
2019-04-01T09:10:36.258Z,13.30
2019-04-01T09:13:06.786Z,14.97
2019-04-01T09:15:37.079Z,12.40
2019-04-01T09:18:06.747Z,15.73
2019-04-01T09:20:36.964Z,17.87
2019-04-01T09:23:07.337Z,14.80
2019-04-01T09:25:37.022Z,18.45
2019-04-01T09:28:06.690Z,15.40
2019-04-01T09:30:37.411Z,14.60
2019-04-01T09:33:07.727Z,14.87
2019-04-01T09:35:40.712Z,14.33
2019-04-01T09:38:10.015Z,12.90
2019-04-01T09:40:40.315Z,13.07
2019-04-01T09:43:13.916Z,13.23
2019-04-01T09:45:42.605Z,11.53
2019-04-01T09:48:12.933Z,11.07
2019-04-01T09:50:42.639Z,20.47
2019-04-01T09:53:12.854Z,12.40
2019-04-01T09:55:42.535Z,13.03
2019-04-01T09:58:12.768Z,13.73
2019-04-01T10:00:43.129Z,13.40
2019-04-01T10:03:13.471Z,14.40
2019-04-01T10:05:43.139Z,13.53
2019-04-01T10:08:13.427Z,13.73
2019-04-01T10:10:43.773Z,16.10
2019-04-01T10:13:14.135Z,18.83
2019-04-01T10:15:44.463Z,20.03
2019-04-01T10:18:14.127Z,19.63
2019-04-01T10:20:44.533Z,17.10
2019-04-01T10:23:14.943Z,14.90
2019-04-01T10:25:46.548Z,16.03
2019-04-01T10:28:16.891Z,14.07
2019-04-01T10:30:47.404Z,13.80
2019-04-01T10:33:17.720Z,18.57
2019-04-01T10:35:47.423Z,13.77
2019-04-01T10:38:17.750Z,17.17
2019-04-01T10:40:48.130Z,16.57
2019-04-01T10:43:18.566Z,13.70
2019-04-01T10:45:48.897Z,14.83
2019-04-01T10:48:19.498Z,14.90
2019-04-01T10:50:50.144Z,15.77
2019-04-01T10:53:20.540Z,12.90
2019-04-01T10:55:50.855Z,14.97
2019-04-01T10:58:21.001Z,12.10
2019-04-01T11:00:50.612Z,15.73
2019-04-01T11:03:20.725Z,15.73
2019-04-01T11:05:50.306Z,17.17
2019-04-01T11:08:20.788Z,14.37
2019-04-01T11:10:51.026Z,17.20
2019-04-01T11:13:21.866Z,18.43
2019-04-01T11:15:51.802Z,13.17
2019-04-01T11:18:21.381Z,13.40
2019-04-01T11:20:51.022Z,16.40
2019-04-01T11:23:21.415Z,16.07
2019-04-01T11:25:56.600Z,13.80
2019-04-01T11:28:26.262Z,16.77
2019-04-01T11:30:56.560Z,15.37
2019-04-01T11:33:26.300Z,15.70
2019-04-01T11:35:56.519Z,16.50
2019-04-01T11:38:26.205Z,15.83
2019-04-01T11:40:56.495Z,14.63
2019-04-01T11:43:26.852Z,14.50
2019-04-01T11:45:56.529Z,15.23
2019-04-01T11:48:26.132Z,14.38
2019-04-01T11:50:56.353Z,12.87
2019-04-01T11:53:26.019Z,14.23
2019-04-01T11:55:55.615Z,24.73
2019-04-01T11:58:25.201Z,15.07
2019-04-01T12:00:54.787Z,17.03
2019-04-01T12:03:24.683Z,17.17
2019-04-01T12:05:54.366Z,17.23
2019-04-01T12:08:25.060Z,18.77
2019-04-01T12:10:55.500Z,14.40
2019-04-01T12:13:25.744Z,12.37
2019-04-01T12:15:55.434Z,13.17
2019-04-01T12:18:25.002Z,15.03
2019-04-01T12:20:55.244Z,12.63
2019-04-01T12:23:24.919Z,15.40
2019-04-01T12:25:55.189Z,15.30
2019-04-01T12:28:25.526Z,17.17
2019-04-01T12:30:55.844Z,15.63
2019-04-01T12:33:26.641Z,11.40
2019-04-01T12:35:56.363Z,13.87
2019-04-01T12:38:26.615Z,16.17
2019-04-01T12:40:56.925Z,14.00
2019-04-01T12:43:27.259Z,15.63
2019-04-01T12:45:56.977Z,17.60
2019-04-01T12:48:26.782Z,12.57
2019-04-01T12:50:56.359Z,14.87
2019-04-01T12:53:25.903Z,17.57
2019-04-01T12:55:55.463Z,13.30
2019-04-01T12:58:25.433Z,13.43
2019-04-01T13:00:55.347Z,13.87
2019-04-01T13:03:25.599Z,17.60
2019-04-01T13:05:55.951Z,14.60
2019-04-01T13:08:25.652Z,14.03
2019-04-01T13:10:56.714Z,14.53
2019-04-01T13:13:27.154Z,20.53
2019-04-01T13:15:57.503Z,18.53
2019-04-01T13:18:27.823Z,14.73
2019-04-01T13:20:57.686Z,16.60
2019-04-01T13:23:27.936Z,19.30
2019-04-01T13:25:57.611Z,15.90
2019-04-01T13:28:27.214Z,13.80
2019-04-01T13:30:56.892Z,17.43
2019-04-01T13:33:27.223Z,18.33
2019-04-01T13:35:57.680Z,12.00
2019-04-01T13:38:27.577Z,14.53
2019-04-01T13:40:57.195Z,15.47
2019-04-01T13:43:26.769Z,16.57
2019-04-01T13:45:56.435Z,15.07
2019-04-01T13:48:26.061Z,16.17
2019-04-01T13:50:56.296Z,16.67
2019-04-01T13:53:25.971Z,13.67
2019-04-01T13:55:56.231Z,14.67
2019-04-01T13:58:25.921Z,14.73
2019-04-01T14:00:55.535Z,16.07
2019-04-01T14:03:25.122Z,18.27
2019-04-01T14:05:55.406Z,17.07
2019-04-01T14:08:25.059Z,21.30
2019-04-01T14:10:54.856Z,20.00
2019-04-01T14:13:25.093Z,15.97
2019-04-01T14:15:55.431Z,18.87
2019-04-01T14:18:25.098Z,21.67
2019-04-01T14:20:54.689Z,25.97
2019-04-01T14:23:24.891Z,19.10
2019-04-01T14:25:55.215Z,16.23
2019-04-01T14:28:24.867Z,17.97
2019-04-01T14:30:55.133Z,16.47
2019-04-01T14:33:25.440Z,32.80
2019-04-01T14:35:55.791Z,21.07
2019-04-01T14:38:25.576Z,16.02
2019-04-01T14:40:58.182Z,18.63
2019-04-01T14:43:31.130Z,22.47
2019-04-01T14:46:00.035Z,17.30
2019-04-01T14:48:30.614Z,23.63
2019-04-01T14:51:01.117Z,18.83
2019-04-01T14:53:31.505Z,18.63
2019-04-01T14:56:02.011Z,21.30
2019-04-01T14:58:31.692Z,17.33
2019-04-01T15:01:02.387Z,20.23
2019-04-01T15:03:32.156Z,20.07
2019-04-01T15:06:02.511Z,21.17
2019-04-01T15:08:32.233Z,20.87
2019-04-01T15:11:02.528Z,20.50
2019-04-01T15:13:32.242Z,20.17
2019-04-01T15:16:01.887Z,23.63
2019-04-01T15:18:34.185Z,23.63
2019-04-01T15:21:03.427Z,15.83
2019-04-01T15:23:33.123Z,17.90
2019-04-01T15:26:03.554Z,21.00
2019-04-01T15:28:33.366Z,20.63
2019-04-01T15:31:03.023Z,20.07
2019-04-01T15:33:33.339Z,18.50
2019-04-01T15:36:04.229Z,26.70
2019-04-01T15:38:34.115Z,19.87
2019-04-01T15:41:04.590Z,23.63
2019-04-01T15:43:34.295Z,20.43
2019-04-01T15:46:04.332Z,18.73
2019-04-01T15:48:34.572Z,20.37
2019-04-01T15:51:04.175Z,22.90
2019-04-01T15:53:34.880Z,21.37
2019-04-01T15:56:05.573Z,19.50
2019-04-01T15:58:35.890Z,18.83
2019-04-01T16:01:06.244Z,15.93
2019-04-01T16:03:36.834Z,25.47
2019-04-01T16:06:07.775Z,20.53
2019-04-01T16:08:37.676Z,26.43
2019-04-01T16:11:07.929Z,24.20
2019-04-01T16:13:38.267Z,23.67
2019-04-01T16:16:07.958Z,21.20
2019-04-01T16:18:37.560Z,22.57
2019-04-01T16:21:07.151Z,27.70
2019-04-01T16:23:36.886Z,23.98
2019-04-01T16:26:09.574Z,26.70
2019-04-01T16:28:38.731Z,18.30
2019-04-01T16:31:09.178Z,25.33
2019-04-01T16:33:39.052Z,23.13
2019-04-01T16:36:08.715Z,25.40
2019-04-01T16:38:38.414Z,23.10
2019-04-01T16:41:07.974Z,22.13
2019-04-01T16:43:38.319Z,26.40
2019-04-01T16:46:07.983Z,29.23
2019-04-01T16:48:38.662Z,32.93
2019-04-01T16:51:09.176Z,22.43
2019-04-01T16:53:39.516Z,19.90
2019-04-01T16:56:09.863Z,24.83
2019-04-01T16:58:40.282Z,25.73
2019-04-01T17:01:10.696Z,21.43
2019-04-01T17:03:41.095Z,24.83
2019-04-01T17:06:11.406Z,26.17
2019-04-01T17:08:41.115Z,28.13
2019-04-01T17:11:10.727Z,27.43
2019-04-01T17:13:40.975Z,32.43
2019-04-01T17:16:11.343Z,19.77
2019-04-01T17:18:42.303Z,23.83
2019-04-01T17:21:12.059Z,22.63
2019-04-01T17:23:42.334Z,32.93
2019-04-01T17:26:12.019Z,29.80
2019-04-01T17:28:42.279Z,24.00
2019-04-01T17:31:12.658Z,20.63
2019-04-01T17:33:43.039Z,22.33
2019-04-01T17:36:15.748Z,25.60
2019-04-01T17:38:47.967Z,27.83
2019-04-01T17:41:16.667Z,27.57
2019-04-01T17:43:46.948Z,24.83
2019-04-01T17:46:16.655Z,24.37
2019-04-01T17:48:46.922Z,26.03
2019-04-01T17:51:16.626Z,25.77
2019-04-01T17:53:46.909Z,21.07
2019-04-01T17:56:17.985Z,25.53
2019-04-01T17:58:48.335Z,28.93
2019-04-01T18:01:18.944Z,28.90
2019-04-01T18:03:48.552Z,23.73
2019-04-01T18:06:19.734Z,27.63
2019-04-01T18:08:50.170Z,30.70
2019-04-01T18:11:19.887Z,31.67
2019-04-01T18:13:50.961Z,22.53
2019-04-01T18:16:20.891Z,31.90
2019-04-01T18:18:51.201Z,30.90
2019-04-01T18:21:20.906Z,28.30
2019-04-01T18:23:51.252Z,34.70
2019-04-01T18:26:21.054Z,25.50
2019-04-01T18:28:50.658Z,22.37
2019-04-01T18:31:20.251Z,25.50
2019-04-01T18:33:56.066Z,18.13
2019-04-01T18:36:21.309Z,21.67
2019-04-01T18:38:52.420Z,24.23
2019-04-01T18:41:22.122Z,18.07
2019-04-01T18:43:51.747Z,18.03
2019-04-01T18:46:23.317Z,21.10
2019-04-01T18:48:53.280Z,19.97
2019-04-01T18:51:22.962Z,21.70
2019-04-01T18:53:53.298Z,20.03
2019-04-01T18:56:22.986Z,20.83
2019-04-01T18:58:53.143Z,22.90
2019-04-01T19:01:23.555Z,19.77
2019-04-01T19:03:53.835Z,18.23
2019-04-01T19:06:23.499Z,26.10
2019-04-01T19:08:53.093Z,21.60
2019-04-01T19:11:22.720Z,19.93
2019-04-01T19:13:52.415Z,28.60
2019-04-01T19:16:23.099Z,28.60
2019-04-01T19:18:53.022Z,17.27
2019-04-01T19:21:22.594Z,32.73
2019-04-01T19:23:52.323Z,23.13
2019-04-01T19:26:21.923Z,23.37
2019-04-01T19:28:52.251Z,28.07
2019-04-01T19:31:22.721Z,25.03
2019-04-01T19:33:53.128Z,31.17
2019-04-01T19:36:22.867Z,21.30
2019-04-01T19:38:54.269Z,20.30
2019-04-01T19:41:24.114Z,21.53
2019-04-01T19:43:54.317Z,26.67
2019-04-01T19:46:23.988Z,27.10
2019-04-01T19:48:54.299Z,26.33
2019-04-01T19:51:24.004Z,25.73
2019-04-01T19:53:54.288Z,24.30
2019-04-01T19:56:23.948Z,19.17
2019-04-01T19:58:54.428Z,20.27
2019-04-01T20:01:24.897Z,27.53
2019-04-01T20:03:55.286Z,23.43
2019-04-01T20:06:24.942Z,30.93
2019-04-01T20:08:55.251Z,26.27
2019-04-01T20:11:24.935Z,25.33
2019-04-01T20:13:55.209Z,26.37
2019-04-01T20:16:25.117Z,26.37
2019-04-01T20:18:54.683Z,28.83
2019-04-01T20:21:24.942Z,23.10
2019-04-01T20:23:54.956Z,32.33
2019-04-01T20:26:25.228Z,24.67
2019-04-01T20:28:55.603Z,25.57
2019-04-01T20:31:25.953Z,29.02
2019-04-01T20:33:55.820Z,26.80
2019-04-01T20:36:28.767Z,29.87
2019-04-01T20:38:57.404Z,23.70
2019-04-01T20:41:27.718Z,29.53
2019-04-01T20:43:57.469Z,31.13
2019-04-01T20:46:27.139Z,26.03
2019-04-01T20:48:56.764Z,34.10
2019-04-01T20:51:27.027Z,27.43
2019-04-01T20:53:56.699Z,33.67
2019-04-01T20:56:26.272Z,37.67
2019-04-01T20:58:56.088Z,28.60
2019-04-01T21:01:26.411Z,33.27
2019-04-01T21:03:56.110Z,37.23
2019-04-01T21:06:26.331Z,29.10
2019-04-01T21:08:56.032Z,27.13
2019-04-01T21:11:25.603Z,39.40
2019-04-01T21:13:55.208Z,34.77
2019-04-01T21:16:25.431Z,26.77
2019-04-01T21:18:55.128Z,38.23
2019-04-01T21:21:24.710Z,34.30
2019-04-01T21:23:54.303Z,38.40
2019-04-01T21:26:24.565Z,42.43
2019-04-01T21:28:54.443Z,35.57
2019-04-01T21:31:24.768Z,29.23
2019-04-01T21:33:54.459Z,28.80
2019-04-01T21:36:24.695Z,36.47
2019-04-01T21:38:54.460Z,33.30
2019-04-01T21:41:25.385Z,34.73
2019-04-01T21:43:55.505Z,39.80
2019-04-01T21:46:25.671Z,38.33
2019-04-01T21:48:55.362Z,39.33
2019-04-01T21:51:25.582Z,35.80
2019-04-01T21:53:55.304Z,38.87
2019-04-01T21:56:25.550Z,41.33
2019-04-01T21:58:55.226Z,31.17
2019-04-01T22:01:24.811Z,41.30
2019-04-01T22:03:55.447Z,40.17
2019-04-01T22:06:25.777Z,39.73
2019-04-01T22:08:55.438Z,37.87
2019-04-01T22:11:25.729Z,43.67
2019-04-01T22:13:56.167Z,34.67
2019-04-01T22:16:27.036Z,39.97
2019-04-01T22:18:57.350Z,38.47
2019-04-01T22:21:27.667Z,39.27
2019-04-01T22:23:57.998Z,45.23
2019-04-01T22:26:28.446Z,39.43
2019-04-01T22:28:58.755Z,39.57
2019-04-01T22:31:29.094Z,38.73
2019-04-01T22:33:59.451Z,43.43
2019-04-01T22:36:31.173Z,35.98
2019-04-01T22:39:01.816Z,47.57
2019-04-01T22:41:32.146Z,47.70
2019-04-01T22:44:02.479Z,45.87
2019-04-01T22:46:34.607Z,48.90
2019-04-01T22:49:04.781Z,42.47
2019-04-01T22:51:35.076Z,53.17
2019-04-01T22:54:04.743Z,49.90
2019-04-01T22:56:35.023Z,44.60
2019-04-01T22:59:05.334Z,45.00
2019-04-01T23:01:35.026Z,51.77
2019-04-01T23:04:05.335Z,52.37
2019-04-01T23:06:35.372Z,49.13
2019-04-01T23:09:07.937Z,50.13
2019-04-01T23:11:38.285Z,42.17
2019-04-01T23:14:08.610Z,52.03
2019-04-01T23:16:38.955Z,46.27
2019-04-01T23:19:09.260Z,51.63
2019-04-01T23:21:39.655Z,50.23
2019-04-01T23:24:09.991Z,50.30
2019-04-01T23:26:40.339Z,44.97
2019-04-01T23:29:10.660Z,47.80
2019-04-01T23:31:41.002Z,45.63
2019-04-01T23:34:11.317Z,39.47
2019-04-01T23:36:41.673Z,47.48
2019-04-01T23:39:12.156Z,47.07
2019-04-01T23:41:42.507Z,35.80
2019-04-01T23:44:12.820Z,36.83
2019-04-01T23:46:43.135Z,47.63
2019-04-01T23:49:13.484Z,39.80
2019-04-01T23:51:43.826Z,40.07
2019-04-01T23:54:14.166Z,46.30
2019-04-01T23:56:44.506Z,44.60
2019-04-01T23:59:14.189Z,55.67
